Time;durP1;ratioP1;P1;durP2;ratioP2;P2;SDS_P1;SDS_P2;PMS_P1;PMS_P2;Temp;Humidity;BMP_temperature;BMP_pressure;BME280_temperature;BME280_humidity;BME280_pressure;Samples;Min_cycle;Max_cycle;Signal;HPM_P1;HPM_P2
2022/06/04 00:00:25;;;;;;;2.78;1.90;;;;;;;19.55;42.77;101727.41;5105876;28;20077;-62
2022/06/04 00:02:51;;;;;;;5.45;2.08;;;;;;;19.63;42.90;101725.97;5104950;28;20108;-62
2022/06/04 00:05:21;;;;;;;3.60;2.20;;;;;;;19.51;43.21;101725.47;5102691;28;20055;-62
2022/06/04 00:07:55;;;;;;;3.28;2.10;;;;;;;19.53;42.74;101724.06;5095803;28;20114;-62
2022/06/04 00:15:53;;;;;;;7.28;2.15;;;;;;;19.44;43.12;101711.72;5096177;28;20543;-62
2022/06/04 00:18:20;;;;;;;2.47;1.73;;;;;;;19.46;42.98;101711.44;5092619;28;20418;-62
2022/06/04 00:20:46;;;;;;;4.55;1.95;;;;;;;19.43;43.08;101715.66;5091335;28;20058;-63
2022/06/04 00:23:12;;;;;;;3.45;2.10;;;;;;;19.41;43.05;101708.63;5104876;28;20059;-62
2022/06/04 00:25:39;;;;;;;4.35;2.05;;;;;;;19.35;43.11;101717.13;5100574;28;20031;-62
2022/06/04 00:28:07;;;;;;;4.78;2.08;;;;;;;19.27;43.16;101714.09;5104810;28;20034;-61
2022/06/04 00:30:33;;;;;;;7.22;1.92;;;;;;;19.20;43.51;101716.38;5097659;28;20430;-62
2022/06/04 00:32:58;;;;;;;5.57;2.33;;;;;;;19.29;43.15;101720.25;5097447;28;20052;-61
2022/06/04 00:35:25;;;;;;;2.20;1.98;;;;;;;19.17;43.33;101734.69;5094846;28;20058;-62
2022/06/04 00:37:50;;;;;;;4.78;2.05;;;;;;;19.09;43.69;101735.28;5083291;28;20023;-61
2022/06/04 00:40:49;;;;;;;5.50;2.13;;;;;;;19.20;42.94;101731.28;5100394;28;20619;-61
2022/06/04 00:43:16;;;;;;;7.13;2.15;;;;;;;19.16;43.09;101723.72;5107021;28;20035;-61
2022/06/04 00:46:05;;;;;;;2.30;2.05;;;;;;;19.16;43.08;101707.66;5090769;28;20500;-61
2022/06/04 00:48:34;;;;;;;7.20;2.47;;;;;;;19.04;42.95;101712.81;5092957;28;20035;-61
2022/06/04 00:51:01;;;;;;;2.72;1.95;;;;;;;19.05;42.85;101717.28;5096196;28;20035;-61
2022/06/04 00:53:30;;;;;;;4.07;2.53;;;;;;;18.95;43.34;101723.00;5098656;28;20036;-62
2022/06/04 00:56:16;;;;;;;3.08;1.80;;;;;;;19.02;42.90;101730.00;5103939;28;20024;-61
2022/06/04 00:59:11;;;;;;;4.55;2.30;;;;;;;19.00;43.16;101739.84;5100739;28;20451;-62
2022/06/04 01:02:19;;;;;;;6.15;2.50;;;;;;;19.03;42.92;101748.53;5081835;28;20047;-62
2022/06/04 01:05:19;;;;;;;3.10;2.17;;;;;;;19.07;42.98;101748.81;5100504;28;20409;-60
2022/06/04 01:08:06;;;;;;;3.55;2.20;;;;;;;18.96;43.04;101759.25;5026738;28;20037;-62
2022/06/04 01:11:02;;;;;;;3.97;2.10;;;;;;;18.98;42.82;101775.84;5088302;28;20047;-62
2022/06/04 01:13:53;;;;;;;4.97;2.15;;;;;;;18.98;42.63;101771.09;5083441;28;20078;-61
2022/06/04 01:16:46;;;;;;;3.08;2.03;;;;;;;18.91;42.86;101769.72;5103425;28;20032;-62
2022/06/04 01:19:20;;;;;;;4.93;2.20;;;;;;;18.83;43.05;101766.34;5107354;28;20475;-62
2022/06/04 01:22:24;;;;;;;2.65;2.10;;;;;;;18.86;42.95;101765.78;5096550;28;20028;-61
2022/06/04 01:24:57;;;;;;;2.40;1.98;;;;;;;18.77;42.66;101770.28;5113939;28;20039;-61
2022/06/04 01:27:31;;;;;;;;;;;;;;;19.02;42.29;101771.31;5101586;28;20693;-61
2022/06/04 01:30:26;;;;;;;3.08;2.28;;;;;;;18.75;42.89;101772.56;5109004;28;20002;-62
2022/06/04 01:32:56;;;;;;;3.75;2.03;;;;;;;18.78;45.27;101771.97;5099171;28;20036;-61
2022/06/04 01:35:32;;;;;;;4.15;2.30;;;;;;;18.73;42.59;101774.81;5104784;28;20470;-61
2022/06/04 01:38:05;;;;;;;4.22;2.17;;;;;;;18.67;42.72;101778.75;5107845;28;20058;-61
2022/06/04 01:43:30;;;;;;;3.05;2.30;;;;;;;18.62;42.97;101782.41;5096770;28;20050;-61
2022/06/04 01:46:02;;;;;;;8.60;2.50;;;;;;;18.55;43.25;101781.00;5107241;28;20032;-61
2022/06/04 01:48:32;;;;;;;3.80;2.45;;;;;;;18.37;43.52;101779.66;5101969;28;20036;-61
2022/06/04 01:51:02;;;;;;;3.97;2.50;;;;;;;18.45;43.50;101787.50;5106589;27;20694;-61
2022/06/04 01:53:34;;;;;;;3.95;2.33;;;;;;;18.52;43.29;101798.47;5101214;28;20406;-61
2022/06/04 01:56:07;;;;;;;2.50;2.30;;;;;;;18.46;43.18;101810.81;5086031;28;20030;-61
2022/06/04 01:58:43;;;;;;;4.88;2.20;;;;;;;18.38;43.24;101801.84;5098203;28;20079;-61
2022/06/04 02:01:12;;;;;;;5.25;2.47;;;;;;;18.27;43.57;101811.41;5109482;28;20062;-62
2022/06/04 02:03:42;;;;;;;4.35;2.35;;;;;;;18.21;43.78;101809.72;5095039;28;20378;-61
2022/06/04 02:06:19;;;;;;;2.70;2.03;;;;;;;18.26;43.78;101804.09;5101050;28;20029;-62
2022/06/04 02:08:58;;;;;;;3.30;2.33;;;;;;;18.21;43.91;101801.28;5082332;28;20032;-61
2022/06/04 02:11:24;;;;;;;3.75;2.47;;;;;;;18.13;44.19;101804.66;5099321;28;20024;-62
2022/06/04 02:13:53;;;;;;;3.95;2.15;;;;;;;18.13;44.16;101808.31;5101583;28;20028;-62
2022/06/04 02:16:40;;;;;;;2.72;2.40;;;;;;;18.18;44.11;101809.44;5098566;28;20066;-62
2022/06/04 02:19:06;;;;;;;4.75;2.65;;;;;;;18.11;44.05;101812.53;5112645;28;20032;-62
2022/06/04 02:21:32;;;;;;;3.80;2.45;;;;;;;18.14;44.07;101811.97;5094714;28;20534;-62
2022/06/04 02:23:59;;;;;;;4.97;2.20;;;;;;;18.03;44.30;101810.28;5107022;28;20114;-62
2022/06/04 02:26:25;;;;;;;5.00;2.70;;;;;;;18.12;44.35;101811.41;5100481;28;20028;-62
2022/06/04 02:28:52;;;;;;;3.40;2.70;;;;;;;18.09;44.34;101814.78;5107326;28;20036;-62
2022/06/04 02:31:28;;;;;;;6.40;2.58;;;;;;;18.02;44.52;101815.06;5095886;28;20024;-62
2022/06/04 02:34:23;;;;;;;4.00;2.70;;;;;;;18.06;44.46;101813.38;5105521;28;20114;-62
2022/06/04 02:37:02;;;;;;;4.68;2.78;;;;;;;18.01;44.31;101801.31;5094402;28;20524;-62
2022/06/04 02:39:33;;;;;;;3.47;2.60;;;;;;;17.99;44.67;101797.91;5088123;28;20097;-62
2022/06/04 02:42:20;;;;;;;5.78;2.70;;;;;;;18.02;44.54;101797.38;5105567;28;20427;-64
2022/06/04 02:44:45;;;;;;;3.88;2.67;;;;;;;17.93;44.66;101779.38;5101379;28;20085;-64
2022/06/04 02:47:17;;;;;;;3.05;2.58;;;;;;;17.93;44.86;101776.56;5108218;28;20028;-62
2022/06/04 02:50:10;;;;;;;4.13;3.05;;;;;;;17.95;44.82;101769.53;5081866;28;20117;-60
2022/06/04 02:52:36;;;;;;;5.45;2.70;;;;;;;17.93;44.98;101760.56;5099926;28;20040;-61
2022/06/04 02:55:19;;;;;;;5.63;2.70;;;;;;;17.97;44.80;101749.63;5100958;28;20034;-63
2022/06/04 02:57:52;;;;;;;3.80;2.38;;;;;;;17.89;45.09;101742.59;5081461;28;20497;-63
2022/06/04 03:00:23;;;;;;;5.07;2.75;;;;;;;17.88;45.12;101746.50;5102285;28;20030;-63
2022/06/04 03:02:49;;;;;;;3.97;2.97;;;;;;;17.82;45.15;101742.84;5103712;28;20065;-63
2022/06/04 03:05:18;;;;;;;4.38;3.00;;;;;;;17.83;45.11;101738.91;5111120;28;20042;-61
2022/06/04 03:07:47;;;;;;;5.75;3.00;;;;;;;17.75;45.34;101742.28;5100530;28;20066;-61
2022/06/04 03:10:25;;;;;;;4.93;3.03;;;;;;;17.74;45.43;101749.00;5093150;28;20089;-62
2022/06/04 03:12:51;;;;;;;6.95;3.10;;;;;;;17.70;45.57;101739.47;5094336;28;20024;-61
2022/06/04 03:15:17;;;;;;;4.30;2.90;;;;;;;17.62;45.75;101734.41;5104556;28;20048;-61
2022/06/04 03:17:47;;;;;;;4.05;2.95;;;;;;;17.65;45.97;101736.66;5107163;28;20050;-63
2022/06/04 03:20:15;;;;;;;4.45;3.00;;;;;;;17.59;46.26;101743.38;5103662;28;20080;-61
2022/06/04 03:22:43;;;;;;;5.28;3.42;;;;;;;17.58;46.38;101742.53;5107790;28;20082;-63
2022/06/04 03:25:09;;;;;;;4.93;3.50;;;;;;;17.54;46.57;101746.19;5093004;28;20463;-63
2022/06/04 03:27:37;;;;;;;5.00;3.33;;;;;;;17.57;46.60;101740.00;5106838;28;20032;-62
2022/06/04 03:30:09;;;;;;;6.43;3.67;;;;;;;17.53;46.42;101744.50;5103797;28;20031;-65
2022/06/04 03:32:35;;;;;;;;;;;;;;;17.75;45.46;101739.47;5107222;28;20074;-62
2022/06/04 03:35:00;;;;;;;5.53;3.80;;;;;;;17.42;46.82;101733.25;5112034;28;19963;-65
2022/06/04 03:37:25;;;;;;;4.80;3.72;;;;;;;17.39;46.95;101738.56;5103802;28;20021;-61
2022/06/04 03:39:51;;;;;;;6.53;3.92;;;;;;;17.43;47.06;101737.72;5088692;28;20370;-62
2022/06/04 03:42:16;;;;;;;8.02;3.80;;;;;;;17.37;47.32;101744.47;5098038;28;20035;-63
2022/06/04 03:44:46;;;;;;;4.47;4.00;;;;;;;17.37;47.41;101752.88;5108686;28;20023;-62
2022/06/04 03:47:16;;;;;;;5.22;3.80;;;;;;;17.28;47.74;101762.94;5107020;28;20491;-64
2022/06/04 03:49:42;;;;;;;8.80;4.13;;;;;;;17.30;47.74;101754.28;5104305;28;20571;-62
2022/06/04 03:52:07;;;;;;;8.38;4.25;;;;;;;17.24;47.83;101764.63;5095519;28;20402;-62
2022/06/04 04:00:01;;;;;;;6.35;3.92;;;;;;;17.20;48.31;101759.84;5082040;28;20080;-62
2022/06/04 04:02:26;;;;;;;5.65;4.15;;;;;;;17.22;48.40;101769.69;5107556;28;20035;-62
2022/06/04 04:04:51;;;;;;;4.40;3.78;;;;;;;17.23;48.22;101765.75;5110758;28;20073;-64
2022/06/04 04:07:17;;;;;;;5.30;4.35;;;;;;;17.20;48.21;101757.88;5090401;28;20107;-63
2022/06/04 04:09:42;;;;;;;7.05;4.50;;;;;;;17.20;48.33;101762.66;5091411;28;20389;-62
2022/06/04 04:12:08;;;;;;;7.70;4.40;;;;;;;17.13;48.59;101768.50;5106476;28;20441;-63
2022/06/04 04:14:36;;;;;;;8.57;4.07;;;;;;;17.09;48.81;101770.16;5101803;28;20057;-62
2022/06/04 04:17:01;;;;;;;5.63;4.38;;;;;;;17.11;49.01;101779.16;5111700;28;20030;-62
2022/06/04 04:19:30;;;;;;;8.93;4.22;;;;;;;17.10;48.91;101771.88;5090463;28;21508;-62
2022/06/04 04:21:59;;;;;;;11.57;4.65;;;;;;;17.09;48.90;101785.03;5098729;28;20126;-62
2022/06/04 04:24:25;;;;;;;6.03;4.20;;;;;;;17.04;49.17;101776.59;5094300;28;20073;-62
2022/06/04 04:26:50;;;;;;;7.85;4.50;;;;;;;16.99;49.85;101781.38;5096791;28;20040;-63
2022/06/04 04:29:16;;;;;;;6.35;4.70;;;;;;;16.95;49.49;101783.03;5104921;28;20063;-62
2022/06/04 04:31:41;;;;;;;8.40;4.80;;;;;;;16.97;49.62;101790.03;5104193;28;20034;-62
2022/06/04 04:34:06;;;;;;;7.15;4.80;;;;;;;16.90;49.71;101793.09;5102454;28;20371;-62
2022/06/04 04:36:32;;;;;;;7.75;4.53;;;;;;;16.86;49.97;101800.38;5102655;28;20032;-62
2022/06/04 04:39:01;;;;;;;8.27;5.28;;;;;;;16.87;49.90;101799.25;5087642;28;20020;-62
2022/06/04 04:41:26;;;;;;;6.60;5.07;;;;;;;16.89;49.99;101804.56;5098273;28;20093;-62
2022/06/04 04:43:52;;;;;;;6.80;5.10;;;;;;;16.86;50.07;101808.78;5099161;28;20783;-63
2022/06/04 04:46:18;;;;;;;12.38;5.07;;;;;;;16.86;50.27;101814.41;5104244;28;20040;-60
2022/06/04 04:48:45;;;;;;;6.43;4.88;;;;;;;16.86;50.39;101810.75;5108601;28;20150;-61
2022/06/04 04:51:17;;;;;;;7.07;5.10;;;;;;;16.78;50.47;101812.13;5105561;28;20490;-62
2022/06/04 04:53:43;;;;;;;;;;;;;;;17.05;48.80;101825.13;5105845;28;20025;-62
2022/06/04 04:56:09;;;;;;;7.20;4.93;;;;;;;16.83;50.51;101820.53;5114805;28;19923;-62
2022/06/04 04:58:34;;;;;;;6.22;4.82;;;;;;;16.81;50.63;101817.16;5092015;28;20589;-62
2022/06/04 05:01:00;;;;;;;7.60;4.85;;;;;;;16.77;50.83;101826.38;5088109;28;20048;-63
2022/06/04 05:03:25;;;;;;;7.80;4.95;;;;;;;16.75;51.11;101815.44;5092331;28;20028;-62
2022/06/04 05:06:03;;;;;;;9.68;5.20;;;;;;;16.80;50.77;101803.41;5095292;28;20502;-62
2022/06/04 05:08:29;;;;;;;8.27;5.57;;;;;;;16.80;51.12;101823.88;5091171;28;20028;-62
2022/06/04 05:10:55;;;;;;;8.00;5.18;;;;;;;16.82;51.06;101816.06;5081482;28;20021;-62
2022/06/04 05:13:20;;;;;;;8.55;4.75;;;;;;;16.88;51.08;101819.72;5086336;28;20059;-62
2022/06/04 05:15:46;;;;;;;6.05;5.22;;;;;;;16.83;51.30;101814.94;5091904;28;20031;-61
2022/06/04 05:18:12;;;;;;;6.43;4.97;;;;;;;16.88;51.34;101814.13;5089328;28;20028;-63
2022/06/04 05:20:37;;;;;;;6.75;5.32;;;;;;;16.80;51.56;101826.69;5103874;28;20036;-61
2022/06/04 05:23:03;;;;;;;6.50;4.80;;;;;;;16.79;51.64;101835.38;5090413;28;20036;-62
2022/06/04 05:25:28;;;;;;;7.82;5.03;;;;;;;16.83;51.55;101822.50;5098249;28;20489;-61
2022/06/04 05:27:54;;;;;;;8.80;5.43;;;;;;;16.83;51.45;101833.72;5099853;28;20035;-61
2022/06/04 05:30:19;;;;;;;8.25;5.30;;;;;;;16.87;51.60;101820.84;5103429;28;20027;-61
2022/06/04 05:32:44;;;;;;;9.30;5.20;;;;;;;16.80;52.01;101828.66;5107927;28;20023;-63
2022/06/04 05:35:10;;;;;;;8.63;5.68;;;;;;;16.79;51.93;101830.63;5097235;28;20036;-62
2022/06/04 05:37:36;;;;;;;7.35;5.25;;;;;;;16.77;51.84;101835.63;5097299;28;20059;-61
2022/06/04 05:40:02;;;;;;;7.15;5.18;;;;;;;16.85;51.96;101842.69;5103131;28;20027;-61
2022/06/04 05:42:28;;;;;;;9.55;5.55;;;;;;;16.70;52.00;101846.19;5090233;28;20030;-60
2022/06/04 05:44:53;;;;;;;6.13;5.45;;;;;;;16.70;52.24;101846.19;5107840;28;20036;-61
2022/06/04 05:47:18;;;;;;;12.48;5.93;;;;;;;16.71;52.25;101850.72;5095881;28;20136;-61
2022/06/04 05:49:44;;;;;;;9.98;5.43;;;;;;;16.73;52.25;101851.31;5108668;28;20510;-61
2022/06/04 05:52:09;;;;;;;9.38;5.45;;;;;;;16.80;52.17;101853.88;5095166;28;20042;-61
2022/06/04 05:54:34;;;;;;;7.90;5.75;;;;;;;16.80;52.28;101854.72;5089175;28;20062;-60
2022/06/04 05:57:00;;;;;;;8.55;5.65;;;;;;;16.82;52.13;101852.50;5091691;28;20032;-62
2022/06/04 05:59:28;;;;;;;8.63;5.88;;;;;;;16.77;52.38;101846.84;5109473;28;20028;-61
2022/06/04 06:01:53;;;;;;;8.13;5.93;;;;;;;16.80;52.34;101854.72;5107036;28;20423;-61
2022/06/04 06:04:21;;;;;;;8.07;6.03;;;;;;;16.76;52.66;101855.53;5103246;28;20035;-61
2022/06/04 06:06:50;;;;;;;9.23;6.38;;;;;;;16.77;52.74;101846.84;5099250;28;20039;-61
2022/06/04 06:09:19;;;;;;;10.60;6.20;;;;;;;16.82;52.84;101854.44;5108695;28;20027;-62
2022/06/04 06:11:45;;;;;;;9.35;6.53;;;;;;;16.72;53.05;101857.16;5083490;28;20035;-61
2022/06/04 06:14:11;;;;;;;10.70;6.30;;;;;;;16.82;52.67;101848.84;5104597;28;20040;-61
2022/06/04 06:16:43;;;;;;;7.82;5.75;;;;;;;16.79;52.90;101861.44;5095959;28;20028;-61
2022/06/04 06:19:09;;;;;;;13.52;6.45;;;;;;;16.77;53.05;101849.66;5109490;28;20028;-61
2022/06/04 06:21:36;;;;;;;9.30;7.15;;;;;;;16.75;52.95;101849.09;5097062;28;20051;-61
2022/06/04 06:24:03;;;;;;;10.40;6.30;;;;;;;16.66;53.24;101850.66;5110163;28;20027;-61
2022/06/04 06:26:37;;;;;;;9.82;6.53;;;;;;;16.68;53.40;101845.66;5101823;28;20111;-63
2022/06/04 06:29:04;;;;;;;9.43;6.10;;;;;;;16.78;53.20;101850.50;5108863;28;20366;-62
2022/06/04 06:31:31;;;;;;;10.13;6.65;;;;;;;16.81;53.12;101859.22;5096205;28;20032;-62
2022/06/04 06:33:56;;;;;;;6.97;6.28;;;;;;;16.76;53.52;101858.34;5106092;28;20028;-61
2022/06/04 06:36:22;;;;;;;11.00;7.28;;;;;;;16.81;53.26;101870.44;5103377;28;20035;-62
2022/06/04 06:38:48;;;;;;;13.15;7.05;;;;;;;16.84;53.42;101864.28;5105954;28;20037;-63
2022/06/04 06:41:16;;;;;;;9.02;6.90;;;;;;;16.89;53.24;101869.06;5100913;28;20039;-63
2022/06/04 06:43:46;;;;;;;11.95;7.65;;;;;;;16.80;53.10;101865.94;5108717;27;20111;-63
2022/06/04 06:46:18;;;;;;;9.82;7.05;;;;;;;16.83;53.40;101876.63;5096118;28;20032;-61
2022/06/04 06:48:48;;;;;;;9.13;7.35;;;;;;;16.91;53.09;101878.91;5091375;28;20094;-64
2022/06/04 06:51:22;;;;;;;12.32;7.90;;;;;;;16.91;53.23;101890.13;5106047;28;20386;-65
2022/06/04 06:53:47;;;;;;;8.13;7.25;;;;;;;16.80;53.33;101865.94;5093311;28;20057;-64
2022/06/04 06:56:16;;;;;;;11.55;7.60;;;;;;;16.75;53.28;101874.31;5105127;28;20351;-64
2022/06/04 06:58:41;;;;;;;9.20;7.95;;;;;;;16.81;53.26;101880.81;5109744;28;20036;-64
2022/06/04 07:01:07;;;;;;;12.52;8.10;;;;;;;16.80;53.21;101877.16;5105440;28;20486;-64
2022/06/04 07:03:36;;;;;;;9.85;7.55;;;;;;;16.68;53.47;101874.50;5090571;28;20135;-63
2022/06/04 07:06:03;;;;;;;10.93;7.90;;;;;;;16.75;53.10;101879.94;5084860;28;20063;-63
2022/06/04 07:08:31;;;;;;;10.65;8.43;;;;;;;16.64;53.66;101880.94;5089670;28;20077;-64
2022/06/04 07:10:57;;;;;;;13.20;8.30;;;;;;;16.69;53.55;101875.34;5090811;28;20090;-63
2022/06/04 07:13:22;;;;;;;14.07;8.93;;;;;;;16.72;53.65;101880.44;5084600;28;20024;-62
2022/06/04 07:15:49;;;;;;;11.35;7.97;;;;;;;16.74;53.66;101878.25;5084066;28;20384;-62
2022/06/04 07:18:18;;;;;;;11.15;8.60;;;;;;;16.57;54.10;101878.34;5089165;28;20028;-63
2022/06/04 07:20:43;;;;;;;11.73;8.40;;;;;;;16.65;53.85;101888.22;5094415;28;20462;-64
2022/06/04 07:23:09;;;;;;;9.88;8.65;;;;;;;16.68;54.00;101882.09;5078888;28;20055;-62
2022/06/04 07:25:35;;;;;;;10.70;8.30;;;;;;;16.67;53.97;101880.41;5109702;28;20024;-63
2022/06/04 07:28:01;;;;;;;12.13;8.82;;;;;;;16.74;53.97;101886.66;5102526;28;20089;-63
2022/06/04 07:30:26;;;;;;;11.98;8.60;;;;;;;16.71;54.10;101889.13;5085612;28;20032;-61
2022/06/04 07:32:53;;;;;;;9.68;8.40;;;;;;;16.71;53.87;101889.97;5083918;28;20055;-61
2022/06/04 07:35:19;;;;;;;16.02;8.90;;;;;;;16.71;53.97;101889.97;5108278;28;20054;-61
2022/06/04 07:37:45;;;;;;;10.68;8.23;;;;;;;16.73;54.14;101892.50;5079729;28;20020;-60
2022/06/04 07:40:10;;;;;;;9.90;8.40;;;;;;;16.83;53.49;101898.22;5077329;28;20608;-61
2022/06/04 07:42:36;;;;;;;11.98;8.43;;;;;;;16.80;53.80;101904.34;5082805;28;20093;-62
2022/06/04 07:45:05;;;;;;;12.25;8.30;;;;;;;16.85;53.62;101907.19;5089492;28;20036;-62
2022/06/04 07:47:31;;;;;;;12.45;8.25;;;;;;;16.88;53.77;101903.84;5093709;28;20028;-62
2022/06/04 07:49:57;;;;;;;11.70;8.25;;;;;;;16.85;53.58;101908.03;5110106;28;20053;-62
2022/06/04 07:52:23;;;;;;;10.88;8.65;;;;;;;16.81;53.82;101900.44;5112261;28;20425;-61
2022/06/04 07:54:48;;;;;;;12.68;8.48;;;;;;;16.81;53.72;101898.47;5111728;28;20034;-61
2022/06/04 07:57:16;;;;;;;12.95;8.65;;;;;;;16.82;53.30;101890.88;5111298;28;20035;-61
2022/06/04 07:59:43;;;;;;;13.85;9.02;;;;;;;16.83;53.68;101901.84;5079165;28;20047;-62
2022/06/04 08:02:10;;;;;;;10.50;8.45;;;;;;;16.82;53.60;101902.97;5071113;28;20116;-64
2022/06/04 08:04:35;;;;;;;10.75;8.63;;;;;;;16.90;53.41;101899.66;5071124;28;20035;-62
2022/06/04 08:07:02;;;;;;;11.05;8.10;;;;;;;16.93;53.44;101896.28;5071842;28;20025;-62
2022/06/04 08:09:27;;;;;;;13.30;9.38;;;;;;;16.91;53.12;101906.13;5103067;28;20028;-62
2022/06/04 08:11:53;;;;;;;11.35;8.40;;;;;;;16.91;53.53;101898.53;5111897;28;20039;-62
2022/06/04 08:14:21;;;;;;;11.52;8.68;;;;;;;16.97;53.55;101904.19;5112071;28;20102;-62
2022/06/04 08:16:53;;;;;;;11.82;9.50;;;;;;;16.97;53.58;101905.03;5099547;28;20032;-62
2022/06/04 08:19:19;;;;;;;13.60;9.02;;;;;;;17.01;53.56;101889.34;5089963;28;20717;-62
2022/06/04 08:21:45;;;;;;;16.58;9.20;;;;;;;16.98;54.06;101883.41;5091212;28;20511;-62
2022/06/04 08:24:12;;;;;;;12.85;9.25;;;;;;;17.00;53.92;101890.47;5105707;28;20027;-61
2022/06/04 08:26:40;;;;;;;11.82;8.20;;;;;;;17.03;53.70;101886.28;5111512;28;20047;-62
2022/06/04 08:29:05;;;;;;;12.32;10.13;;;;;;;17.01;53.57;101882.88;5111987;28;20111;-62
2022/06/04 08:31:34;;;;;;;14.48;9.85;;;;;;;16.99;53.85;101876.72;5111144;28;20031;-63
2022/06/04 08:33:59;;;;;;;11.43;9.07;;;;;;;17.05;53.54;101876.47;5104557;28;20043;-61
2022/06/04 08:36:25;;;;;;;11.05;9.45;;;;;;;17.02;53.75;101868.59;5085833;28;20043;-62
2022/06/04 08:38:53;;;;;;;12.85;8.80;;;;;;;17.01;53.78;101877.28;5104186;28;20031;-62
2022/06/04 08:41:28;;;;;;;14.00;9.60;;;;;;;17.03;53.64;101869.44;5110731;28;20093;-62
2022/06/04 08:44:05;;;;;;;14.30;9.77;;;;;;;17.02;53.83;101879.84;5111897;28;20024;-62
2022/06/04 08:46:39;;;;;;;15.65;9.90;;;;;;;17.03;53.92;101886.28;5110323;28;20080;-61
2022/06/04 08:49:11;;;;;;;10.68;9.40;;;;;;;16.98;54.04;101892.72;5111210;28;20079;-62
2022/06/04 08:51:37;;;;;;;10.55;9.07;;;;;;;16.98;54.22;101895.50;5073142;28;20028;-61
2022/06/04 08:57:32;;;;;;;11.95;9.48;;;;;;;17.06;54.06;101894.16;5091206;28;20078;-61
2022/06/04 09:00:00;;;;;;;13.10;10.05;;;;;;;17.06;53.94;101906.22;5082638;28;20059;-61
2022/06/04 09:02:38;;;;;;;12.70;9.85;;;;;;;17.12;54.27;101907.91;5087978;28;20055;-62
2022/06/04 09:05:36;;;;;;;11.02;9.85;;;;;;;17.19;53.73;101902.06;5084221;28;20038;-62
2022/06/04 09:08:12;;;;;;;13.25;10.18;;;;;;;17.24;54.37;101899.28;5099227;28;20097;-60
2022/06/04 09:10:55;;;;;;;10.63;9.45;;;;;;;17.43;53.45;101899.66;5093070;28;20551;-62
2022/06/04 09:13:26;;;;;;;14.02;10.20;;;;;;;17.52;53.64;101897.16;5080823;28;20538;-64
2022/06/04 09:15:54;;;;;;;15.43;9.70;;;;;;;17.62;53.75;101905.66;5078901;28;20041;-64
2022/06/04 09:18:32;;;;;;;11.32;10.15;;;;;;;17.70;53.73;101899.50;5091589;28;20425;-63
2022/06/04 09:21:01;;;;;;;11.05;8.15;;;;;;;17.87;52.86;101894.50;5072518;28;20035;-61
2022/06/04 09:23:36;;;;;;;13.75;10.73;;;;;;;18.00;53.29;101895.09;5092070;28;20103;-62
2022/06/04 09:26:27;;;;;;;12.93;10.20;;;;;;;18.13;52.59;101886.16;5092931;28;20040;-61
2022/06/04 09:29:20;;;;;;;13.10;10.30;;;;;;;18.23;52.18;101888.97;5075569;28;20032;-60
2022/06/04 09:31:51;;;;;;;11.52;10.05;;;;;;;18.32;52.03;101901.34;5090187;28;20131;-64
2022/06/04 09:34:22;;;;;;;13.60;9.85;;;;;;;18.38;51.81;101908.66;5091783;28;20454;-63
2022/06/04 09:36:48;;;;;;;11.13;10.05;;;;;;;18.42;52.08;101902.47;5089373;28;20024;-65
2022/06/04 09:39:33;;;;;;;11.75;9.90;;;;;;;18.43;52.05;101899.41;5094099;28;20047;-65
2022/06/04 09:42:01;;;;;;;13.38;10.10;;;;;;;18.40;52.43;101905.56;5075731;28;20058;-64
2022/06/04 09:44:28;;;;;;;13.55;10.27;;;;;;;18.40;52.00;101899.97;5077935;28;20039;-67
2022/06/04 09:46:58;;;;;;;11.02;9.43;;;;;;;18.43;51.67;101904.16;5077420;28;20024;-65
2022/06/04 09:49:42;;;;;;;12.95;10.25;;;;;;;18.54;51.22;101909.50;5087522;28;20036;-65
2022/06/04 09:52:34;;;;;;;15.15;10.85;;;;;;;18.62;51.00;101910.91;5085795;28;20463;-64
2022/06/04 09:55:07;;;;;;;12.93;9.48;;;;;;;18.65;51.82;101914.00;5086861;28;20036;-64
2022/06/04 09:57:37;;;;;;;12.25;10.85;;;;;;;18.65;51.16;101915.97;5078713;28;20156;-63
2022/06/04 10:00:19;;;;;;;13.85;10.48;;;;;;;18.67;51.64;101916.53;5089185;28;20035;-61
2022/06/04 10:03:12;;;;;;;13.32;11.43;;;;;;;18.64;50.94;101919.91;5077063;28;20047;-63
2022/06/04 10:05:52;;;;;;;12.15;10.57;;;;;;;18.61;51.00;101909.22;5086017;28;20114;-66
2022/06/04 10:08:26;;;;;;;14.50;10.13;;;;;;;18.66;50.84;101923.28;5078513;28;20036;-65
2022/06/04 10:10:58;;;;;;;13.27;11.00;;;;;;;18.67;51.06;101922.16;5091953;28;20024;-63
2022/06/04 10:13:48;;;;;;;12.93;11.20;;;;;;;18.68;50.98;101931.44;5076517;28;20027;-62
2022/06/04 10:16:36;;;;;;;12.07;9.57;;;;;;;18.79;50.97;101931.19;5082791;28;20060;-64
2022/06/04 10:19:02;;;;;;;13.80;10.43;;;;;;;18.89;50.65;101919.91;5089393;28;20028;-63
2022/06/04 10:21:31;;;;;;;13.25;10.73;;;;;;;18.95;50.90;101917.13;5092090;28;20024;-64
2022/06/04 10:23:59;;;;;;;14.60;10.82;;;;;;;18.96;51.09;101919.63;5085442;28;20035;-64
2022/06/04 10:26:38;;;;;;;13.32;10.43;;;;;;;19.02;51.14;101914.81;5095371;28;20027;-64
2022/06/04 10:29:16;;;;;;;15.13;11.38;;;;;;;19.06;50.97;101913.13;5102455;28;20036;-61
2022/06/04 10:31:53;;;;;;;13.60;10.95;;;;;;;19.08;51.07;101925.78;5103802;28;20039;-61
2022/06/04 10:34:45;;;;;;;16.40;11.23;;;;;;;19.10;50.52;101920.75;5090228;28;20070;-63
2022/06/04 10:37:22;;;;;;;13.18;11.00;;;;;;;19.10;50.52;101926.38;5103628;28;20554;-62
2022/06/04 10:39:56;;;;;;;12.68;11.35;;;;;;;19.07;50.69;101914.84;5091770;28;20112;-62
2022/06/04 10:42:34;;;;;;;12.82;10.52;;;;;;;19.16;50.84;101917.91;5094286;28;20364;-63
2022/06/04 10:45:12;;;;;;;13.45;11.80;;;;;;;19.23;50.76;101915.63;5100339;28;20039;-63
2022/06/04 10:48:18;;;;;;;14.90;12.50;;;;;;;19.40;50.77;101924.59;5106946;28;20045;-63
2022/06/04 10:54:21;;;;;;;12.60;11.30;;;;;;;19.52;50.52;101932.72;5097562;28;20073;-63
2022/06/04 10:57:15;;;;;;;13.50;12.10;;;;;;;19.57;50.08;101929.88;5107662;28;20027;-62
2022/06/04 10:59:54;;;;;;;12.90;11.32;;;;;;;19.63;49.85;101925.94;5103147;28;20053;-62
2022/06/04 11:02:53;;;;;;;17.17;13.35;;;;;;;19.70;50.07;101923.66;5096242;28;20525;-62
2022/06/04 11:05:27;;;;;;;14.75;10.65;;;;;;;19.85;50.19;101926.41;5088948;28;20035;-61
2022/06/04 11:08:01;;;;;;;16.88;11.82;;;;;;;20.02;49.71;101920.38;5095982;28;20573;-63
2022/06/04 11:10:37;;;;;;;15.15;11.07;;;;;;;20.22;49.69;101927.88;5085173;28;20056;-62
2022/06/04 11:13:05;;;;;;;15.95;12.10;;;;;;;20.27;48.39;101925.00;5098384;28;20157;-62
2022/06/04 11:15:39;;;;;;;14.27;12.10;;;;;;;20.27;48.25;101925.00;5095006;28;20024;-62
2022/06/04 11:18:16;;;;;;;17.67;12.27;;;;;;;20.28;48.43;101928.69;5091212;28;20039;-62
2022/06/04 11:21:20;;;;;;;15.68;11.82;;;;;;;20.35;48.79;101923.53;5110645;28;20038;-61
2022/06/04 11:23:59;;;;;;;13.55;11.77;;;;;;;20.39;48.62;101921.81;5094593;28;20042;-62
2022/06/04 11:26:32;;;;;;;14.68;11.88;;;;;;;20.41;48.42;101919.56;5091689;28;20039;-60
2022/06/04 11:28:59;;;;;;;15.30;11.23;;;;;;;20.41;48.13;101916.75;5090420;28;20086;-62
2022/06/04 11:31:46;;;;;;;16.35;11.73;;;;;;;20.46;48.43;101918.69;5105290;28;20024;-63
2022/06/04 11:34:33;;;;;;;14.30;12.73;;;;;;;20.49;48.18;101929.41;5079260;28;20040;-62
2022/06/04 11:37:17;;;;;;;14.77;11.98;;;;;;;20.50;48.55;101915.00;5070193;28;20365;-63
2022/06/04 11:40:10;;;;;;;13.40;11.85;;;;;;;20.57;48.79;101909.03;5074832;28;20120;-63
2022/06/04 11:42:48;;;;;;;14.40;11.57;;;;;;;20.65;48.40;101908.41;5085244;28;20782;-62
2022/06/04 11:45:47;;;;;;;13.68;10.98;;;;;;;20.79;48.75;101906.59;5082255;28;20572;-62
2022/06/04 11:48:31;;;;;;;13.35;10.85;;;;;;;20.97;48.63;101898.50;5091445;28;20114;-63
2022/06/04 11:51:34;;;;;;;14.45;11.95;;;;;;;21.01;47.80;101900.41;5092863;28;20036;-63
2022/06/04 11:54:17;;;;;;;12.90;11.40;;;;;;;21.06;47.85;101893.88;5102515;28;20032;-63
2022/06/04 11:57:17;;;;;;;14.30;10.45;;;;;;;21.10;47.49;101900.59;5071706;28;20040;-63
2022/06/04 11:59:51;;;;;;;14.95;10.90;;;;;;;21.07;46.25;101895.59;5082564;28;20052;-62
2022/06/04 12:02:27;;;;;;;11.50;8.52;;;;;;;21.04;47.03;101880.06;5090166;28;20078;-62
2022/06/04 12:05:04;;;;;;;12.70;10.73;;;;;;;21.12;47.17;101887.03;5076861;28;20467;-63